HSPN

Port Sudan New International Airport

Port Sudan, Sudan
METAR HSPN 242000Z 36017KT CAVOK 26/21 Q1010
Observed Flight Rules
Feb-24 @ 20:00 UTC (14 minutes ago) Visual Flight Rules
Wind Visibility Clouds
360° at 17 knots 10,000+ meters
  • Clear skies
Temperatures Readings
Current 26°C / 79°F
Dewpoint 21°C / 70°F
Humidity 74%
Altimeter 29.82" Hg
Pressure 1010 hPa
Elevation 138
METAR HSPN 242000Z 36017KT CAVOK 26/21 Q1010
Observed Flight Rules
Feb-24 @ 20:00 UTC
(14 minutes ago)
VFR
Wind Visibility
360° at 17 knots 10,000+ meters
Clouds
  • Clear skies
Temperature Dewpoint
26°C / 79°F 21°C / 70°F
Humidity Altimeter Pressure
74% 29.82" Hg 1010 hPa